sensor_id;sensor_type;location;lat;lon;timestamp;temperature;humidity
36458;DHT22;22480;50.546;12.292;2023-06-10T00:02:08;12.20;99.90
36458;DHT22;22480;50.546;12.292;2023-06-10T00:04:34;12.10;99.90
36458;DHT22;22480;50.546;12.292;2023-06-10T00:07:03;12.10;99.90
36458;DHT22;22480;50.546;12.292;2023-06-10T00:09:29;12.00;99.90
36458;DHT22;22480;50.546;12.292;2023-06-10T00:11:55;12.10;99.90
36458;DHT22;22480;50.546;12.292;2023-06-10T00:14:21;12.10;99.90
36458;DHT22;22480;50.546;12.292;2023-06-10T00:16:46;12.10;99.90
36458;DHT22;22480;50.546;12.292;2023-06-10T00:19:12;12.00;99.90
36458;DHT22;22480;50.546;12.292;2023-06-10T00:21:41;11.90;99.90
36458;DHT22;22480;50.546;12.292;2023-06-10T00:24:07;12.00;99.90
36458;DHT22;22480;50.546;12.292;2023-06-10T00:26:38;12.00;99.90
36458;DHT22;22480;50.546;12.292;2023-06-10T00:29:04;11.90;99.90
36458;DHT22;22480;50.546;12.292;2023-06-10T00:31:31;11.90;99.90
36458;DHT22;22480;50.546;12.292;2023-06-10T00:33:57;11.80;99.90
36458;DHT22;22480;50.546;12.292;2023-06-10T00:36:24;11.90;99.90
36458;DHT22;22480;50.546;12.292;2023-06-10T00:38:50;11.90;99.90
36458;DHT22;22480;50.546;12.292;2023-06-10T00:41:15;11.80;99.90
36458;DHT22;22480;50.546;12.292;2023-06-10T00:43:41;11.70;99.90
36458;DHT22;22480;50.546;12.292;2023-06-10T00:46:07;11.60;99.90
36458;DHT22;22480;50.546;12.292;2023-06-10T00:48:33;11.60;99.90
36458;DHT22;22480;50.546;12.292;2023-06-10T00:50:59;11.60;99.90
36458;DHT22;22480;50.546;12.292;2023-06-10T00:53:26;11.60;99.90
36458;DHT22;22480;50.546;12.292;2023-06-10T00:55:53;11.60;99.90
36458;DHT22;22480;50.546;12.292;2023-06-10T00:58:19;11.60;99.90
36458;DHT22;22480;50.546;12.292;2023-06-10T01:00:44;11.60;99.90
36458;DHT22;22480;50.546;12.292;2023-06-10T01:03:10;11.80;99.90
36458;DHT22;22480;50.546;12.292;2023-06-10T01:05:38;11.90;99.90
36458;DHT22;22480;50.546;12.292;2023-06-10T01:08:17;12.00;99.90
36458;DHT22;22480;50.546;12.292;2023-06-10T01:10:53;12.00;99.90
36458;DHT22;22480;50.546;12.292;2023-06-10T01:13:22;12.20;99.90
36458;DHT22;22480;50.546;12.292;2023-06-10T01:15:51;12.10;99.90
36458;DHT22;22480;50.546;12.292;2023-06-10T01:18:17;12.10;99.90
36458;DHT22;22480;50.546;12.292;2023-06-10T01:20:44;12.10;99.90
36458;DHT22;22480;50.546;12.292;2023-06-10T01:23:11;12.10;99.90
36458;DHT22;22480;50.546;12.292;2023-06-10T01:25:43;12.00;99.90
36458;DHT22;22480;50.546;12.292;2023-06-10T01:28:14;12.00;99.90
36458;DHT22;22480;50.546;12.292;2023-06-10T01:30:46;12.00;99.90
36458;DHT22;22480;50.546;12.292;2023-06-10T01:33:19;12.00;99.90
36458;DHT22;22480;50.546;12.292;2023-06-10T01:35:48;11.90;99.90
36458;DHT22;22480;50.546;12.292;2023-06-10T01:38:15;11.90;99.90
36458;DHT22;22480;50.546;12.292;2023-06-10T01:40:43;11.80;99.90
36458;DHT22;22480;50.546;12.292;2023-06-10T01:43:09;11.80;99.90
36458;DHT22;22480;50.546;12.292;2023-06-10T01:45:35;11.80;99.90
36458;DHT22;22480;50.546;12.292;2023-06-10T01:48:00;11.70;99.90
36458;DHT22;22480;50.546;12.292;2023-06-10T01:50:26;11.60;99.90
36458;DHT22;22480;50.546;12.292;2023-06-10T01:52:52;11.50;99.90
36458;DHT22;22480;50.546;12.292;2023-06-10T01:55:17;11.30;99.90
36458;DHT22;22480;50.546;12.292;2023-06-10T01:57:43;11.20;99.90
36458;DHT22;22480;50.546;12.292;2023-06-10T02:00:09;11.10;99.90
36458;DHT22;22480;50.546;12.292;2023-06-10T02:02:41;11.00;99.90
36458;DHT22;22480;50.546;12.292;2023-06-10T02:05:07;11.00;99.90
36458;DHT22;22480;50.546;12.292;2023-06-10T02:07:33;11.10;99.90
36458;DHT22;22480;50.546;12.292;2023-06-10T02:09:59;11.00;99.90
36458;DHT22;22480;50.546;12.292;2023-06-10T02:12:24;11.50;99.90
36458;DHT22;22480;50.546;12.292;2023-06-10T02:14:51;11.80;99.90
36458;DHT22;22480;50.546;12.292;2023-06-10T02:17:17;11.70;99.90
36458;DHT22;22480;50.546;12.292;2023-06-10T02:19:42;11.60;99.90
36458;DHT22;22480;50.546;12.292;2023-06-10T02:22:09;11.70;99.90
36458;DHT22;22480;50.546;12.292;2023-06-10T02:24:38;11.90;99.90
36458;DHT22;22480;50.546;12.292;2023-06-10T02:27:05;11.90;99.90
36458;DHT22;22480;50.546;12.292;2023-06-10T02:29:36;11.90;99.90
36458;DHT22;22480;50.546;12.292;2023-06-10T02:32:02;11.90;99.90
36458;DHT22;22480;50.546;12.292;2023-06-10T02:34:28;11.90;99.90
36458;DHT22;22480;50.546;12.292;2023-06-10T02:36:55;12.00;99.90
36458;DHT22;22480;50.546;12.292;2023-06-10T02:39:22;11.90;99.90
36458;DHT22;22480;50.546;12.292;2023-06-10T02:41:48;12.00;99.90
36458;DHT22;22480;50.546;12.292;2023-06-10T02:44:15;11.90;99.90
36458;DHT22;22480;50.546;12.292;2023-06-10T02:46:41;11.90;99.90
36458;DHT22;22480;50.546;12.292;2023-06-10T02:49:07;11.90;99.90
36458;DHT22;22480;50.546;12.292;2023-06-10T02:51:34;11.90;99.90
36458;DHT22;22480;50.546;12.292;2023-06-10T02:54:02;11.80;99.90
36458;DHT22;22480;50.546;12.292;2023-06-10T02:56:28;11.60;99.90
36458;DHT22;22480;50.546;12.292;2023-06-10T02:58:57;11.50;99.90
36458;DHT22;22480;50.546;12.292;2023-06-10T03:01:25;11.30;99.90
36458;DHT22;22480;50.546;12.292;2023-06-10T03:04:05;11.20;99.90
36458;DHT22;22480;50.546;12.292;2023-06-10T03:06:32;11.10;99.90
36458;DHT22;22480;50.546;12.292;2023-06-10T03:09:16;11.00;99.90
36458;DHT22;22480;50.546;12.292;2023-06-10T03:11:45;10.90;99.90
36458;DHT22;22480;50.546;12.292;2023-06-10T03:14:11;10.90;99.90
36458;DHT22;22480;50.546;12.292;2023-06-10T03:16:36;10.90;99.90
36458;DHT22;22480;50.546;12.292;2023-06-10T03:19:07;10.90;99.90
36458;DHT22;22480;50.546;12.292;2023-06-10T03:21:35;10.90;99.90
36458;DHT22;22480;50.546;12.292;2023-06-10T03:24:04;10.90;99.90
36458;DHT22;22480;50.546;12.292;2023-06-10T03:26:31;10.90;99.90
36458;DHT22;22480;50.546;12.292;2023-06-10T03:28:58;10.90;99.90
36458;DHT22;22480;50.546;12.292;2023-06-10T03:31:24;11.00;99.90
36458;DHT22;22480;50.546;12.292;2023-06-10T03:33:51;11.00;99.90
36458;DHT22;22480;50.546;12.292;2023-06-10T03:36:17;11.00;99.90
36458;DHT22;22480;50.546;12.292;2023-06-10T03:38:43;11.10;99.90
36458;DHT22;22480;50.546;12.292;2023-06-10T03:41:09;11.10;99.90
36458;DHT22;22480;50.546;12.292;2023-06-10T03:43:37;11.10;99.90
36458;DHT22;22480;50.546;12.292;2023-06-10T03:46:04;11.10;99.90
36458;DHT22;22480;50.546;12.292;2023-06-10T03:48:32;11.20;99.90
36458;DHT22;22480;50.546;12.292;2023-06-10T03:50:58;11.20;99.90
36458;DHT22;22480;50.546;12.292;2023-06-10T03:53:24;11.30;99.90
36458;DHT22;22480;50.546;12.292;2023-06-10T03:55:50;11.40;99.90
36458;DHT22;22480;50.546;12.292;2023-06-10T03:58:19;11.50;99.90
36458;DHT22;22480;50.546;12.292;2023-06-10T04:00:45;11.70;99.90
36458;DHT22;22480;50.546;12.292;2023-06-10T04:03:12;11.80;99.90
36458;DHT22;22480;50.546;12.292;2023-06-10T04:05:43;12.00;99.90
36458;DHT22;22480;50.546;12.292;2023-06-10T04:08:09;12.10;99.90
36458;DHT22;22480;50.546;12.292;2023-06-10T04:10:35;12.20;99.90
36458;DHT22;22480;50.546;12.292;2023-06-10T04:13:01;12.30;99.90
36458;DHT22;22480;50.546;12.292;2023-06-10T04:15:31;12.40;99.90
36458;DHT22;22480;50.546;12.292;2023-06-10T04:18:04;12.40;99.90
36458;DHT22;22480;50.546;12.292;2023-06-10T04:20:30;12.40;99.90
36458;DHT22;22480;50.546;12.292;2023-06-10T04:22:57;12.50;99.90
36458;DHT22;22480;50.546;12.292;2023-06-10T04:25:23;12.80;99.90
36458;DHT22;22480;50.546;12.292;2023-06-10T04:27:50;13.20;99.90
36458;DHT22;22480;50.546;12.292;2023-06-10T04:30:16;13.60;99.90
36458;DHT22;22480;50.546;12.292;2023-06-10T04:32:43;13.90;99.90
36458;DHT22;22480;50.546;12.292;2023-06-10T04:35:14;13.90;99.90
36458;DHT22;22480;50.546;12.292;2023-06-10T04:37:41;13.90;99.90
36458;DHT22;22480;50.546;12.292;2023-06-10T04:40:08;13.80;99.90
36458;DHT22;22480;50.546;12.292;2023-06-10T04:42:34;13.90;99.90
36458;DHT22;22480;50.546;12.292;2023-06-10T04:45:00;14.00;99.90
36458;DHT22;22480;50.546;12.292;2023-06-10T04:47:26;14.40;99.90
36458;DHT22;22480;50.546;12.292;2023-06-10T04:49:52;14.90;99.90
36458;DHT22;22480;50.546;12.292;2023-06-10T04:52:18;15.30;99.90
36458;DHT22;22480;50.546;12.292;2023-06-10T04:54:44;15.50;99.90
36458;DHT22;22480;50.546;12.292;2023-06-10T04:57:09;15.70;99.90
36458;DHT22;22480;50.546;12.292;2023-06-10T04:59:37;15.80;99.90
36458;DHT22;22480;50.546;12.292;2023-06-10T05:02:06;15.90;99.90
36458;DHT22;22480;50.546;12.292;2023-06-10T05:04:32;16.00;99.90
36458;DHT22;22480;50.546;12.292;2023-06-10T05:06:57;16.30;99.90
36458;DHT22;22480;50.546;12.292;2023-06-10T05:09:23;16.50;99.90
36458;DHT22;22480;50.546;12.292;2023-06-10T05:11:49;16.50;99.90
36458;DHT22;22480;50.546;12.292;2023-06-10T05:14:14;16.60;99.90
36458;DHT22;22480;50.546;12.292;2023-06-10T05:16:44;16.80;99.90
36458;DHT22;22480;50.546;12.292;2023-06-10T05:19:10;17.00;99.90
36458;DHT22;22480;50.546;12.292;2023-06-10T05:21:36;17.40;99.90
36458;DHT22;22480;50.546;12.292;2023-06-10T05:24:02;17.70;99.90
36458;DHT22;22480;50.546;12.292;2023-06-10T05:26:28;18.10;99.90
36458;DHT22;22480;50.546;12.292;2023-06-10T05:28:54;18.30;99.90
36458;DHT22;22480;50.546;12.292;2023-06-10T05:31:20;18.90;99.90
36458;DHT22;22480;50.546;12.292;2023-06-10T05:33:45;19.50;99.90
36458;DHT22;22480;50.546;12.292;2023-06-10T05:36:11;19.30;99.90
36458;DHT22;22480;50.546;12.292;2023-06-10T05:38:37;19.50;99.90
36458;DHT22;22480;50.546;12.292;2023-06-10T05:41:02;19.70;99.90
36458;DHT22;22480;50.546;12.292;2023-06-10T05:43:29;20.10;99.90
36458;DHT22;22480;50.546;12.292;2023-06-10T05:45:54;20.10;99.90
36458;DHT22;22480;50.546;12.292;2023-06-10T05:48:20;19.90;99.90
36458;DHT22;22480;50.546;12.292;2023-06-10T05:50:46;19.60;99.90
36458;DHT22;22480;50.546;12.292;2023-06-10T05:53:16;19.90;99.90
36458;DHT22;22480;50.546;12.292;2023-06-10T05:55:43;20.10;99.90
36458;DHT22;22480;50.546;12.292;2023-06-10T05:58:09;19.80;99.90
36458;DHT22;22480;50.546;12.292;2023-06-10T06:00:35;20.30;99.90
36458;DHT22;22480;50.546;12.292;2023-06-10T06:03:01;20.60;99.90
36458;DHT22;22480;50.546;12.292;2023-06-10T06:05:26;20.60;99.90
36458;DHT22;22480;50.546;12.292;2023-06-10T06:07:52;20.80;99.90
36458;DHT22;22480;50.546;12.292;2023-06-10T06:10:18;21.00;99.90
36458;DHT22;22480;50.546;12.292;2023-06-10T06:12:44;21.40;99.90
36458;DHT22;22480;50.546;12.292;2023-06-10T06:15:10;21.10;99.90
36458;DHT22;22480;50.546;12.292;2023-06-10T06:17:36;20.70;99.90
36458;DHT22;22480;50.546;12.292;2023-06-10T06:20:03;20.50;99.90
36458;DHT22;22480;50.546;12.292;2023-06-10T06:22:29;20.10;99.90
36458;DHT22;22480;50.546;12.292;2023-06-10T06:24:54;20.00;99.90
36458;DHT22;22480;50.546;12.292;2023-06-10T06:27:20;19.90;99.90
36458;DHT22;22480;50.546;12.292;2023-06-10T06:29:46;20.10;99.90
36458;DHT22;22480;50.546;12.292;2023-06-10T06:32:12;20.20;99.90
36458;DHT22;22480;50.546;12.292;2023-06-10T06:34:38;20.60;99.90
36458;DHT22;22480;50.546;12.292;2023-06-10T06:37:04;21.10;99.90
36458;DHT22;22480;50.546;12.292;2023-06-10T06:39:32;21.20;99.90
36458;DHT22;22480;50.546;12.292;2023-06-10T06:41:58;20.90;99.90
36458;DHT22;22480;50.546;12.292;2023-06-10T06:44:41;20.70;99.90
36458;DHT22;22480;50.546;12.292;2023-06-10T06:47:07;20.70;99.90
36458;DHT22;22480;50.546;12.292;2023-06-10T06:49:32;21.00;99.90
36458;DHT22;22480;50.546;12.292;2023-06-10T06:51:58;21.50;99.90
36458;DHT22;22480;50.546;12.292;2023-06-10T06:54:24;21.50;99.90
36458;DHT22;22480;50.546;12.292;2023-06-10T06:56:50;21.60;99.90
36458;DHT22;22480;50.546;12.292;2023-06-10T06:59:16;21.50;99.90
36458;DHT22;22480;50.546;12.292;2023-06-10T07:01:45;21.50;99.90
36458;DHT22;22480;50.546;12.292;2023-06-10T07:04:11;21.50;99.90
36458;DHT22;22480;50.546;12.292;2023-06-10T07:06:37;21.20;99.90
36458;DHT22;22480;50.546;12.292;2023-06-10T07:09:05;21.50;99.90
36458;DHT22;22480;50.546;12.292;2023-06-10T07:11:32;21.30;99.90
36458;DHT22;22480;50.546;12.292;2023-06-10T07:13:57;21.30;99.90
36458;DHT22;22480;50.546;12.292;2023-06-10T07:16:23;21.30;99.90
36458;DHT22;22480;50.546;12.292;2023-06-10T07:18:48;21.90;99.90
36458;DHT22;22480;50.546;12.292;2023-06-10T07:21:14;22.40;99.90
36458;DHT22;22480;50.546;12.292;2023-06-10T07:23:43;22.20;99.90
36458;DHT22;22480;50.546;12.292;2023-06-10T07:26:10;21.90;99.90
36458;DHT22;22480;50.546;12.292;2023-06-10T07:28:37;21.80;99.90
36458;DHT22;22480;50.546;12.292;2023-06-10T07:31:03;22.00;99.90
36458;DHT22;22480;50.546;12.292;2023-06-10T07:33:29;22.00;99.90
36458;DHT22;22480;50.546;12.292;2023-06-10T07:35:55;21.90;99.90
36458;DHT22;22480;50.546;12.292;2023-06-10T07:38:20;22.20;99.90
36458;DHT22;22480;50.546;12.292;2023-06-10T07:40:46;22.60;99.90
36458;DHT22;22480;50.546;12.292;2023-06-10T07:43:12;22.50;99.90
36458;DHT22;22480;50.546;12.292;2023-06-10T07:45:41;22.80;99.90
36458;DHT22;22480;50.546;12.292;2023-06-10T07:48:07;22.70;99.90
36458;DHT22;22480;50.546;12.292;2023-06-10T07:50:33;22.40;99.90
36458;DHT22;22480;50.546;12.292;2023-06-10T07:52:59;22.00;99.90
36458;DHT22;22480;50.546;12.292;2023-06-10T07:55:25;22.10;99.90
36458;DHT22;22480;50.546;12.292;2023-06-10T07:57:54;22.50;99.90
36458;DHT22;22480;50.546;12.292;2023-06-10T08:00:20;22.70;99.90
36458;DHT22;22480;50.546;12.292;2023-06-10T08:02:46;22.70;99.90
36458;DHT22;22480;50.546;12.292;2023-06-10T08:05:12;22.70;99.90
36458;DHT22;22480;50.546;12.292;2023-06-10T08:07:39;22.60;99.90
36458;DHT22;22480;50.546;12.292;2023-06-10T08:10:06;22.90;99.90
36458;DHT22;22480;50.546;12.292;2023-06-10T08:12:33;22.90;99.90
36458;DHT22;22480;50.546;12.292;2023-06-10T08:14:59;23.30;99.90
36458;DHT22;22480;50.546;12.292;2023-06-10T08:17:25;23.50;99.90
36458;DHT22;22480;50.546;12.292;2023-06-10T08:19:50;23.70;99.90
36458;DHT22;22480;50.546;12.292;2023-06-10T08:22:16;23.90;99.90
36458;DHT22;22480;50.546;12.292;2023-06-10T08:24:42;23.80;99.90
36458;DHT22;22480;50.546;12.292;2023-06-10T08:27:07;23.50;99.90
36458;DHT22;22480;50.546;12.292;2023-06-10T08:29:33;23.50;99.90
36458;DHT22;22480;50.546;12.292;2023-06-10T08:31:59;23.20;99.90
36458;DHT22;22480;50.546;12.292;2023-06-10T08:34:24;23.00;99.90
36458;DHT22;22480;50.546;12.292;2023-06-10T08:36:50;23.10;99.90
36458;DHT22;22480;50.546;12.292;2023-06-10T08:39:21;23.40;99.90
36458;DHT22;22480;50.546;12.292;2023-06-10T08:44:28;23.70;99.90
36458;DHT22;22480;50.546;12.292;2023-06-10T08:46:59;23.80;99.90
36458;DHT22;22480;50.546;12.292;2023-06-10T08:49:27;24.00;99.90
36458;DHT22;22480;50.546;12.292;2023-06-10T08:52:02;24.30;99.90
36458;DHT22;22480;50.546;12.292;2023-06-10T08:54:31;24.30;99.90
36458;DHT22;22480;50.546;12.292;2023-06-10T08:56:58;24.30;99.90
36458;DHT22;22480;50.546;12.292;2023-06-10T08:59:25;24.50;99.90
36458;DHT22;22480;50.546;12.292;2023-06-10T09:01:52;24.40;99.90
36458;DHT22;22480;50.546;12.292;2023-06-10T09:04:19;24.70;99.90
36458;DHT22;22480;50.546;12.292;2023-06-10T09:06:46;24.90;99.90
36458;DHT22;22480;50.546;12.292;2023-06-10T09:09:14;24.60;99.90
36458;DHT22;22480;50.546;12.292;2023-06-10T09:11:43;24.60;99.90
36458;DHT22;22480;50.546;12.292;2023-06-10T09:14:09;24.40;99.90
36458;DHT22;22480;50.546;12.292;2023-06-10T09:16:35;24.40;99.90
36458;DHT22;22480;50.546;12.292;2023-06-10T09:19:01;24.70;99.90
36458;DHT22;22480;50.546;12.292;2023-06-10T09:21:36;24.70;99.90
36458;DHT22;22480;50.546;12.292;2023-06-10T09:24:01;25.00;99.90
36458;DHT22;22480;50.546;12.292;2023-06-10T09:26:30;25.20;99.90
36458;DHT22;22480;50.546;12.292;2023-06-10T09:29:06;25.40;99.50
36458;DHT22;22480;50.546;12.292;2023-06-10T09:31:38;24.90;99.90
36458;DHT22;22480;50.546;12.292;2023-06-10T09:34:11;25.20;99.10
36458;DHT22;22480;50.546;12.292;2023-06-10T09:36:37;25.70;98.60
36458;DHT22;22480;50.546;12.292;2023-06-10T09:39:04;26.10;93.50
36458;DHT22;22480;50.546;12.292;2023-06-10T09:41:34;26.40;91.60
36458;DHT22;22480;50.546;12.292;2023-06-10T09:44:16;26.70;92.30
36458;DHT22;22480;50.546;12.292;2023-06-10T09:46:42;26.60;91.20
36458;DHT22;22480;50.546;12.292;2023-06-10T09:49:10;26.30;92.30
36458;DHT22;22480;50.546;12.292;2023-06-10T09:51:36;26.50;94.90
36458;DHT22;22480;50.546;12.292;2023-06-10T09:54:03;26.70;94.40
36458;DHT22;22480;50.546;12.292;2023-06-10T09:56:35;27.40;90.20
36458;DHT22;22480;50.546;12.292;2023-06-10T09:59:03;27.80;88.70
36458;DHT22;22480;50.546;12.292;2023-06-10T10:01:31;28.30;87.90
36458;DHT22;22480;50.546;12.292;2023-06-10T10:03:57;28.00;86.20
36458;DHT22;22480;50.546;12.292;2023-06-10T10:06:23;28.50;84.50
36458;DHT22;22480;50.546;12.292;2023-06-10T10:08:50;28.00;83.50
36458;DHT22;22480;50.546;12.292;2023-06-10T10:11:21;27.70;84.00
36458;DHT22;22480;50.546;12.292;2023-06-10T10:13:52;27.30;87.90
36458;DHT22;22480;50.546;12.292;2023-06-10T10:16:20;27.10;91.00
36458;DHT22;22480;50.546;12.292;2023-06-10T10:18:56;26.60;91.60
36458;DHT22;22480;50.546;12.292;2023-06-10T10:21:30;26.10;99.10
36458;DHT22;22480;50.546;12.292;2023-06-10T10:24:31;25.60;99.50
36458;DHT22;22480;50.546;12.292;2023-06-10T10:26:50;24.90;99.80
36458;DHT22;22480;50.546;12.292;2023-06-10T10:29:58;24.80;99.90
36458;DHT22;22480;50.546;12.292;2023-06-10T10:32:18;25.00;99.90
36458;DHT22;22480;50.546;12.292;2023-06-10T10:34:57;25.50;98.60
36458;DHT22;22480;50.546;12.292;2023-06-10T10:37:26;26.70;94.40
36458;DHT22;22480;50.546;12.292;2023-06-10T10:39:52;27.50;91.00
36458;DHT22;22480;50.546;12.292;2023-06-10T10:42:19;28.20;78.60
36458;DHT22;22480;50.546;12.292;2023-06-10T10:44:44;28.50;71.60
36458;DHT22;22480;50.546;12.292;2023-06-10T10:47:13;27.60;83.10
36458;DHT22;22480;50.546;12.292;2023-06-10T10:49:39;25.70;99.90
36458;DHT22;22480;50.546;12.292;2023-06-10T10:52:11;23.10;99.90
36458;DHT22;22480;50.546;12.292;2023-06-10T10:54:39;21.30;99.90
36458;DHT22;22480;50.546;12.292;2023-06-10T10:57:19;20.10;99.90
36458;DHT22;22480;50.546;12.292;2023-06-10T11:02:18;18.90;99.90
36458;DHT22;22480;50.546;12.292;2023-06-10T11:04:47;18.70;99.90
36458;DHT22;22480;50.546;12.292;2023-06-10T11:07:14;18.40;99.90
36458;DHT22;22480;50.546;12.292;2023-06-10T11:12:23;18.20;99.90
36458;DHT22;22480;50.546;12.292;2023-06-10T11:14:54;18.20;99.90
36458;DHT22;22480;50.546;12.292;2023-06-10T11:17:21;18.40;99.90
36458;DHT22;22480;50.546;12.292;2023-06-10T11:19:47;18.80;99.90
36458;DHT22;22480;50.546;12.292;2023-06-10T11:22:18;19.50;99.90
36458;DHT22;22480;50.546;12.292;2023-06-10T11:24:49;20.40;99.90
36458;DHT22;22480;50.546;12.292;2023-06-10T11:27:16;21.20;99.90
36458;DHT22;22480;50.546;12.292;2023-06-10T11:32:35;22.00;99.90
36458;DHT22;22480;50.546;12.292;2023-06-10T11:35:04;22.20;99.90
36458;DHT22;22480;50.546;12.292;2023-06-10T11:37:30;22.50;99.90
36458;DHT22;22480;50.546;12.292;2023-06-10T11:39:56;23.10;99.90
36458;DHT22;22480;50.546;12.292;2023-06-10T11:42:22;23.50;99.90
36458;DHT22;22480;50.546;12.292;2023-06-10T11:44:52;23.70;99.90
36458;DHT22;22480;50.546;12.292;2023-06-10T11:47:19;24.00;99.90
36458;DHT22;22480;50.546;12.292;2023-06-10T11:49:46;24.60;99.90
36458;DHT22;22480;50.546;12.292;2023-06-10T11:52:27;24.80;99.90
36458;DHT22;22480;50.546;12.292;2023-06-10T11:54:54;25.30;99.90
36458;DHT22;22480;50.546;12.292;2023-06-10T11:57:20;25.60;99.90
36458;DHT22;22480;50.546;12.292;2023-06-10T11:59:46;25.90;99.90
36458;DHT22;22480;50.546;12.292;2023-06-10T12:02:18;25.80;99.90
36458;DHT22;22480;50.546;12.292;2023-06-10T12:04:44;26.30;99.90
36458;DHT22;22480;50.546;12.292;2023-06-10T12:07:17;26.60;99.90
36458;DHT22;22480;50.546;12.292;2023-06-10T12:09:45;27.30;99.90
36458;DHT22;22480;50.546;12.292;2023-06-10T12:12:10;29.00;99.90
36458;DHT22;22480;50.546;12.292;2023-06-10T12:14:54;29.60;98.10
36458;DHT22;22480;50.546;12.292;2023-06-10T12:19:50;30.40;84.90
36458;DHT22;22480;50.546;12.292;2023-06-10T12:22:16;30.70;83.20
36458;DHT22;22480;50.546;12.292;2023-06-10T12:25:01;30.70;82.00
36458;DHT22;22480;50.546;12.292;2023-06-10T12:27:29;31.00;73.60
36458;DHT22;22480;50.546;12.292;2023-06-10T12:29:57;31.30;74.50
36458;DHT22;22480;50.546;12.292;2023-06-10T12:32:58;30.70;83.20
36458;DHT22;22480;50.546;12.292;2023-06-10T12:35:26;29.80;82.50
36458;DHT22;22480;50.546;12.292;2023-06-10T12:38:00;29.60;73.80
36458;DHT22;22480;50.546;12.292;2023-06-10T12:40:31;29.10;74.80
36458;DHT22;22480;50.546;12.292;2023-06-10T12:42:58;29.60;88.60
36458;DHT22;22480;50.546;12.292;2023-06-10T12:48:09;30.90;62.80
36458;DHT22;22480;50.546;12.292;2023-06-10T12:50:41;30.90;61.80
36458;DHT22;22480;50.546;12.292;2023-06-10T12:53:08;30.80;61.80
36458;DHT22;22480;50.546;12.292;2023-06-10T12:55:34;31.10;64.90
36458;DHT22;22480;50.546;12.292;2023-06-10T12:58:00;31.60;57.00
36458;DHT22;22480;50.546;12.292;2023-06-10T13:00:27;32.00;60.40
36458;DHT22;22480;50.546;12.292;2023-06-10T13:02:56;32.00;59.60
36458;DHT22;22480;50.546;12.292;2023-06-10T13:05:21;31.80;59.30
36458;DHT22;22480;50.546;12.292;2023-06-10T13:07:47;30.80;61.50
36458;DHT22;22480;50.546;12.292;2023-06-10T13:10:14;29.90;63.10
36458;DHT22;22480;50.546;12.292;2023-06-10T13:12:40;30.60;65.00
36458;DHT22;22480;50.546;12.292;2023-06-10T13:15:06;31.30;60.80
36458;DHT22;22480;50.546;12.292;2023-06-10T13:17:32;32.30;63.10
36458;DHT22;22480;50.546;12.292;2023-06-10T13:20:05;33.00;62.30
36458;DHT22;22480;50.546;12.292;2023-06-10T13:22:31;33.40;57.90
36458;DHT22;22480;50.546;12.292;2023-06-10T13:24:59;34.10;61.50
36458;DHT22;22480;50.546;12.292;2023-06-10T13:27:25;34.80;62.30
36458;DHT22;22480;50.546;12.292;2023-06-10T13:29:50;34.60;51.10
36458;DHT22;22480;50.546;12.292;2023-06-10T13:32:16;34.70;55.20
36458;DHT22;22480;50.546;12.292;2023-06-10T13:34:42;34.70;51.90
36458;DHT22;22480;50.546;12.292;2023-06-10T13:37:07;34.90;55.20
36458;DHT22;22480;50.546;12.292;2023-06-10T13:39:33;34.40;53.30
36458;DHT22;22480;50.546;12.292;2023-06-10T13:41:59;34.70;51.10
36458;DHT22;22480;50.546;12.292;2023-06-10T13:44:24;35.10;53.30
36458;DHT22;22480;50.546;12.292;2023-06-10T13:46:50;35.80;52.70
36458;DHT22;22480;50.546;12.292;2023-06-10T13:49:16;36.20;48.50
36458;DHT22;22480;50.546;12.292;2023-06-10T13:51:42;35.80;46.80
36458;DHT22;22480;50.546;12.292;2023-06-10T13:54:07;36.00;47.50
36458;DHT22;22480;50.546;12.292;2023-06-10T13:56:33;35.30;49.00
36458;DHT22;22480;50.546;12.292;2023-06-10T13:59:03;34.20;48.30
36458;DHT22;22480;50.546;12.292;2023-06-10T14:01:29;34.30;49.10
36458;DHT22;22480;50.546;12.292;2023-06-10T14:03:55;34.70;52.90
36458;DHT22;22480;50.546;12.292;2023-06-10T14:06:21;34.10;47.80
36458;DHT22;22480;50.546;12.292;2023-06-10T14:08:46;33.40;51.00
36458;DHT22;22480;50.546;12.292;2023-06-10T14:11:12;32.50;48.50
36458;DHT22;22480;50.546;12.292;2023-06-10T14:13:38;32.00;50.90
36458;DHT22;22480;50.546;12.292;2023-06-10T14:16:04;32.50;50.20
36458;DHT22;22480;50.546;12.292;2023-06-10T14:18:30;32.80;50.70
36458;DHT22;22480;50.546;12.292;2023-06-10T14:20:56;33.30;49.30
36458;DHT22;22480;50.546;12.292;2023-06-10T14:23:22;33.50;49.70
36458;DHT22;22480;50.546;12.292;2023-06-10T14:25:48;34.30;49.50
36458;DHT22;22480;50.546;12.292;2023-06-10T14:28:13;35.10;51.10
36458;DHT22;22480;50.546;12.292;2023-06-10T14:30:39;35.60;47.30
36458;DHT22;22480;50.546;12.292;2023-06-10T14:33:05;35.00;52.40
36458;DHT22;22480;50.546;12.292;2023-06-10T14:35:31;34.30;49.70
36458;DHT22;22480;50.546;12.292;2023-06-10T14:37:56;33.80;49.80
36458;DHT22;22480;50.546;12.292;2023-06-10T14:40:22;33.30;51.60
36458;DHT22;22480;50.546;12.292;2023-06-10T14:42:50;33.20;53.40
36458;DHT22;22480;50.546;12.292;2023-06-10T14:45:15;33.00;55.60
36458;DHT22;22480;50.546;12.292;2023-06-10T14:47:41;34.10;55.20
36458;DHT22;22480;50.546;12.292;2023-06-10T14:50:07;34.90;51.50
36458;DHT22;22480;50.546;12.292;2023-06-10T14:52:33;35.10;50.60
36458;DHT22;22480;50.546;12.292;2023-06-10T14:54:59;35.00;50.10
36458;DHT22;22480;50.546;12.292;2023-06-10T14:57:24;34.80;50.60
36458;DHT22;22480;50.546;12.292;2023-06-10T14:59:50;34.40;47.00
36458;DHT22;22480;50.546;12.292;2023-06-10T15:02:16;34.40;51.20
36458;DHT22;22480;50.546;12.292;2023-06-10T15:04:42;34.60;50.00
36458;DHT22;22480;50.546;12.292;2023-06-10T15:07:07;34.40;48.60
36458;DHT22;22480;50.546;12.292;2023-06-10T15:09:33;33.80;50.00
36458;DHT22;22480;50.546;12.292;2023-06-10T15:11:59;33.90;48.80
36458;DHT22;22480;50.546;12.292;2023-06-10T15:14:29;34.80;49.80
36458;DHT22;22480;50.546;12.292;2023-06-10T15:16:55;34.80;49.20
36458;DHT22;22480;50.546;12.292;2023-06-10T15:19:21;33.60;48.20
36458;DHT22;22480;50.546;12.292;2023-06-10T15:21:47;32.30;53.90
36458;DHT22;22480;50.546;12.292;2023-06-10T15:24:12;31.90;52.50
36458;DHT22;22480;50.546;12.292;2023-06-10T15:26:38;32.60;53.60
36458;DHT22;22480;50.546;12.292;2023-06-10T15:29:04;33.20;51.60
36458;DHT22;22480;50.546;12.292;2023-06-10T15:31:30;33.20;49.40
36458;DHT22;22480;50.546;12.292;2023-06-10T15:33:58;33.20;49.80